sensor_id;sensor_type;location;lat;lon;timestamp;temperature;humidity
3402;DHT22;1714;49.756;8.610;2023-07-31T00:05:18;19.00;1.00
3402;DHT22;1714;49.756;8.610;2023-07-31T00:15:53;18.70;1.00
3402;DHT22;1714;49.756;8.610;2023-07-31T00:26:28;18.80;1.00
3402;DHT22;1714;49.756;8.610;2023-07-31T00:37:04;18.70;1.00
3402;DHT22;1714;49.756;8.610;2023-07-31T00:47:39;18.70;1.00
3402;DHT22;1714;49.756;8.610;2023-07-31T00:58:15;18.80;1.00
3402;DHT22;1714;49.756;8.610;2023-07-31T01:09:03;18.80;1.00
3402;DHT22;1714;49.756;8.610;2023-07-31T01:19:38;18.80;1.00
3402;DHT22;1714;49.756;8.610;2023-07-31T01:30:19;18.80;1.00
3402;DHT22;1714;49.756;8.610;2023-07-31T01:40:57;18.70;1.00
3402;DHT22;1714;49.756;8.610;2023-07-31T01:51:33;18.70;1.00
3402;DHT22;1714;49.756;8.610;2023-07-31T02:02:09;18.70;1.00
3402;DHT22;1714;49.756;8.610;2023-07-31T02:12:44;18.60;1.00
3402;DHT22;1714;49.756;8.610;2023-07-31T02:23:19;18.60;1.00
3402;DHT22;1714;49.756;8.610;2023-07-31T02:33:54;18.50;1.00
3402;DHT22;1714;49.756;8.610;2023-07-31T02:44:29;18.30;1.00
3402;DHT22;1714;49.756;8.610;2023-07-31T02:55:05;18.20;1.00
3402;DHT22;1714;49.756;8.610;2023-07-31T03:05:41;18.10;1.00
3402;DHT22;1714;49.756;8.610;2023-07-31T03:16:15;18.10;1.00
3402;DHT22;1714;49.756;8.610;2023-07-31T03:26:51;18.00;1.00
3402;DHT22;1714;49.756;8.610;2023-07-31T03:37:26;18.00;1.00
3402;DHT22;1714;49.756;8.610;2023-07-31T03:48:01;18.10;1.00
3402;DHT22;1714;49.756;8.610;2023-07-31T03:58:37;18.00;1.00
3402;DHT22;1714;49.756;8.610;2023-07-31T04:09:12;17.90;1.00
3402;DHT22;1714;49.756;8.610;2023-07-31T04:19:47;18.00;1.00
3402;DHT22;1714;49.756;8.610;2023-07-31T04:30:22;18.00;1.00
3402;DHT22;1714;49.756;8.610;2023-07-31T04:40:57;18.00;1.00
3402;DHT22;1714;49.756;8.610;2023-07-31T04:51:32;18.00;1.00
3402;DHT22;1714;49.756;8.610;2023-07-31T05:02:08;18.00;1.00
3402;DHT22;1714;49.756;8.610;2023-07-31T05:12:43;18.10;1.00
3402;DHT22;1714;49.756;8.610;2023-07-31T05:23:18;18.20;1.00
3402;DHT22;1714;49.756;8.610;2023-07-31T05:33:54;18.20;1.00
3402;DHT22;1714;49.756;8.610;2023-07-31T05:44:29;18.20;1.00
3402;DHT22;1714;49.756;8.610;2023-07-31T05:55:04;18.30;1.00
3402;DHT22;1714;49.756;8.610;2023-07-31T06:05:40;18.40;1.00
3402;DHT22;1714;49.756;8.610;2023-07-31T06:16:15;18.40;1.00
3402;DHT22;1714;49.756;8.610;2023-07-31T06:26:50;18.60;1.00
3402;DHT22;1714;49.756;8.610;2023-07-31T06:37:25;18.80;1.00
3402;DHT22;1714;49.756;8.610;2023-07-31T06:48:00;19.20;1.00
3402;DHT22;1714;49.756;8.610;2023-07-31T06:58:36;19.20;1.00
3402;DHT22;1714;49.756;8.610;2023-07-31T07:09:11;19.30;1.00
3402;DHT22;1714;49.756;8.610;2023-07-31T07:19:47;19.40;1.00
3402;DHT22;1714;49.756;8.610;2023-07-31T07:30:23;20.10;1.00
3402;DHT22;1714;49.756;8.610;2023-07-31T07:40:59;20.40;1.00
3402;DHT22;1714;49.756;8.610;2023-07-31T07:51:34;20.40;1.00
3402;DHT22;1714;49.756;8.610;2023-07-31T08:02:09;20.60;1.00
3402;DHT22;1714;49.756;8.610;2023-07-31T08:12:44;20.90;1.00
3402;DHT22;1714;49.756;8.610;2023-07-31T08:23:20;22.30;1.00
3402;DHT22;1714;49.756;8.610;2023-07-31T08:33:56;23.20;1.00
3402;DHT22;1714;49.756;8.610;2023-07-31T08:44:31;23.00;1.00
3402;DHT22;1714;49.756;8.610;2023-07-31T08:55:07;23.80;1.00
3402;DHT22;1714;49.756;8.610;2023-07-31T09:05:44;23.70;1.00
3402;DHT22;1714;49.756;8.610;2023-07-31T09:16:27;23.20;1.00
3402;DHT22;1714;49.756;8.610;2023-07-31T09:27:05;22.70;1.00
3402;DHT22;1714;49.756;8.610;2023-07-31T09:37:41;22.30;1.00
3402;DHT22;1714;49.756;8.610;2023-07-31T09:48:17;22.30;1.00
3402;DHT22;1714;49.756;8.610;2023-07-31T09:58:52;22.60;1.00
3402;DHT22;1714;49.756;8.610;2023-07-31T10:09:31;22.60;1.00
3402;DHT22;1714;49.756;8.610;2023-07-31T10:20:07;23.20;1.00
3402;DHT22;1714;49.756;8.610;2023-07-31T10:30:42;23.10;1.00
3402;DHT22;1714;49.756;8.610;2023-07-31T10:41:17;24.10;1.00
3402;DHT22;1714;49.756;8.610;2023-07-31T10:51:56;23.20;1.00
3402;DHT22;1714;49.756;8.610;2023-07-31T11:02:33;23.00;1.00
3402;DHT22;1714;49.756;8.610;2023-07-31T11:13:09;23.30;1.00
3402;DHT22;1714;49.756;8.610;2023-07-31T11:23:56;22.90;1.00
3402;DHT22;1714;49.756;8.610;2023-07-31T11:34:51;22.40;1.00
3402;DHT22;1714;49.756;8.610;2023-07-31T11:45:27;21.90;1.00
3402;DHT22;1714;49.756;8.610;2023-07-31T11:56:02;21.90;1.00
3402;DHT22;1714;49.756;8.610;2023-07-31T12:06:41;22.20;1.00
3402;DHT22;1714;49.756;8.610;2023-07-31T12:17:17;22.80;1.00
3402;DHT22;1714;49.756;8.610;2023-07-31T12:27:53;22.70;1.00
3402;DHT22;1714;49.756;8.610;2023-07-31T12:38:29;22.30;1.00
3402;DHT22;1714;49.756;8.610;2023-07-31T12:49:04;22.10;1.00
3402;DHT22;1714;49.756;8.610;2023-07-31T12:59:39;22.10;1.00
3402;DHT22;1714;49.756;8.610;2023-07-31T13:10:14;22.20;1.00
3402;DHT22;1714;49.756;8.610;2023-07-31T13:20:49;22.50;1.00
3402;DHT22;1714;49.756;8.610;2023-07-31T13:31:23;23.00;1.00
3402;DHT22;1714;49.756;8.610;2023-07-31T13:41:58;23.00;1.00
3402;DHT22;1714;49.756;8.610;2023-07-31T13:52:33;22.60;1.00
3402;DHT22;1714;49.756;8.610;2023-07-31T14:03:08;22.50;1.00
3402;DHT22;1714;49.756;8.610;2023-07-31T14:13:44;22.40;1.00
3402;DHT22;1714;49.756;8.610;2023-07-31T14:24:19;22.20;1.00
3402;DHT22;1714;49.756;8.610;2023-07-31T14:34:54;22.20;1.00
3402;DHT22;1714;49.756;8.610;2023-07-31T14:45:30;22.20;1.00
3402;DHT22;1714;49.756;8.610;2023-07-31T14:56:04;22.20;1.00
3402;DHT22;1714;49.756;8.610;2023-07-31T15:06:39;22.40;1.00
3402;DHT22;1714;49.756;8.610;2023-07-31T15:17:15;22.50;1.00
3402;DHT22;1714;49.756;8.610;2023-07-31T15:27:50;22.40;1.00
3402;DHT22;1714;49.756;8.610;2023-07-31T15:38:25;22.40;1.00
3402;DHT22;1714;49.756;8.610;2023-07-31T15:49:00;22.30;1.00
3402;DHT22;1714;49.756;8.610;2023-07-31T15:59:37;22.30;1.00
3402;DHT22;1714;49.756;8.610;2023-07-31T16:10:13;22.50;1.00
3402;DHT22;1714;49.756;8.610;2023-07-31T16:20:48;22.50;1.00
3402;DHT22;1714;49.756;8.610;2023-07-31T16:31:22;22.50;1.00
3402;DHT22;1714;49.756;8.610;2023-07-31T16:41:58;22.20;1.00
3402;DHT22;1714;49.756;8.610;2023-07-31T16:52:33;21.80;1.00
3402;DHT22;1714;49.756;8.610;2023-07-31T17:03:07;21.30;1.00
3402;DHT22;1714;49.756;8.610;2023-07-31T17:13:43;21.30;1.00
3402;DHT22;1714;49.756;8.610;2023-07-31T17:24:17;20.90;1.00
3402;DHT22;1714;49.756;8.610;2023-07-31T17:34:52;21.00;1.00
3402;DHT22;1714;49.756;8.610;2023-07-31T17:45:27;20.70;1.00
3402;DHT22;1714;49.756;8.610;2023-07-31T17:56:02;20.60;1.00
3402;DHT22;1714;49.756;8.610;2023-07-31T18:06:38;20.40;1.00
3402;DHT22;1714;49.756;8.610;2023-07-31T18:17:13;20.10;1.00
3402;DHT22;1714;49.756;8.610;2023-07-31T18:27:48;19.90;1.00
3402;DHT22;1714;49.756;8.610;2023-07-31T18:38:23;19.70;1.00
3402;DHT22;1714;49.756;8.610;2023-07-31T18:48:58;19.50;1.00
3402;DHT22;1714;49.756;8.610;2023-07-31T18:59:33;19.50;1.00
3402;DHT22;1714;49.756;8.610;2023-07-31T19:10:08;19.40;1.00
3402;DHT22;1714;49.756;8.610;2023-07-31T19:20:50;19.30;1.00
3402;DHT22;1714;49.756;8.610;2023-07-31T19:31:25;19.40;1.00
3402;DHT22;1714;49.756;8.610;2023-07-31T19:42:00;19.30;1.00
3402;DHT22;1714;49.756;8.610;2023-07-31T19:52:35;19.20;1.00
3402;DHT22;1714;49.756;8.610;2023-07-31T20:03:10;19.10;1.00
3402;DHT22;1714;49.756;8.610;2023-07-31T20:13:45;19.10;1.00
3402;DHT22;1714;49.756;8.610;2023-07-31T20:24:20;19.10;1.00
3402;DHT22;1714;49.756;8.610;2023-07-31T20:34:54;18.90;1.00
3402;DHT22;1714;49.756;8.610;2023-07-31T20:45:29;18.70;1.00
3402;DHT22;1714;49.756;8.610;2023-07-31T20:56:11;18.50;1.00
3402;DHT22;1714;49.756;8.610;2023-07-31T21:06:46;18.30;1.00
3402;DHT22;1714;49.756;8.610;2023-07-31T21:17:21;18.20;1.00
3402;DHT22;1714;49.756;8.610;2023-07-31T21:27:56;18.20;1.00
3402;DHT22;1714;49.756;8.610;2023-07-31T21:38:31;18.10;1.00
3402;DHT22;1714;49.756;8.610;2023-07-31T21:49:06;18.20;1.00
3402;DHT22;1714;49.756;8.610;2023-07-31T21:59:40;17.90;1.00
3402;DHT22;1714;49.756;8.610;2023-07-31T22:10:15;18.00;1.00
3402;DHT22;1714;49.756;8.610;2023-07-31T22:20:51;17.70;1.00
3402;DHT22;1714;49.756;8.610;2023-07-31T22:31:26;17.80;1.00
3402;DHT22;1714;49.756;8.610;2023-07-31T22:42:01;17.80;1.00
3402;DHT22;1714;49.756;8.610;2023-07-31T22:52:36;17.90;1.00
3402;DHT22;1714;49.756;8.610;2023-07-31T23:03:11;17.80;1.00
3402;DHT22;1714;49.756;8.610;2023-07-31T23:13:46;17.80;1.00
3402;DHT22;1714;49.756;8.610;2023-07-31T23:24:21;17.60;1.00
3402;DHT22;1714;49.756;8.610;2023-07-31T23:34:57;17.60;1.00
3402;DHT22;1714;49.756;8.610;2023-07-31T23:45:31;17.60;1.00
3402;DHT22;1714;49.756;8.610;2023-07-31T23:56:06;17.60;1.00
